createdAt,value
2018-07-21T00:00:09.240Z,19.80
2018-07-21T00:02:38.091Z,19.80
2018-07-21T00:05:06.848Z,19.80
2018-07-21T00:07:35.510Z,19.70
2018-07-21T00:10:04.033Z,19.80
2018-07-21T00:12:32.618Z,19.70
2018-07-21T00:15:01.222Z,19.70
2018-07-21T00:17:29.801Z,19.60
2018-07-21T00:19:58.275Z,19.60
2018-07-21T00:22:27.160Z,19.70
2018-07-21T00:24:55.750Z,19.70
2018-07-21T00:27:24.182Z,19.60
2018-07-21T00:29:52.648Z,19.60
2018-07-21T00:32:21.175Z,19.60
2018-07-21T00:34:49.756Z,19.70
2018-07-21T00:37:18.468Z,19.60
2018-07-21T00:39:47.086Z,19.60
2018-07-21T00:42:15.747Z,19.50
2018-07-21T00:44:44.277Z,19.50
2018-07-21T00:47:12.805Z,19.50
2018-07-21T00:49:41.472Z,19.50
2018-07-21T00:52:10.563Z,19.50
2018-07-21T00:54:39.349Z,19.50
2018-07-21T00:57:07.892Z,19.50
2018-07-21T00:59:36.310Z,19.50
2018-07-21T01:02:04.805Z,19.50
2018-07-21T01:04:33.344Z,19.60
2018-07-21T01:07:01.963Z,19.50
2018-07-21T01:09:30.570Z,19.60
2018-07-21T01:11:59.068Z,19.50
2018-07-21T01:14:27.549Z,19.50
2018-07-21T01:16:56.132Z,19.50
2018-07-21T01:19:24.605Z,19.50
2018-07-21T01:21:53.064Z,19.50
2018-07-21T01:24:21.471Z,19.50
2018-07-21T01:26:49.976Z,19.50
2018-07-21T01:29:18.407Z,19.40
2018-07-21T01:34:15.115Z,19.50
2018-07-21T01:36:43.621Z,19.40
2018-07-21T01:39:12.533Z,19.40
2018-07-21T01:46:37.381Z,19.40
2018-07-21T01:49:05.987Z,19.30
2018-07-21T01:51:34.498Z,19.20
2018-07-21T01:54:02.978Z,19.20
2018-07-21T01:56:31.650Z,19.20
2018-07-21T01:59:00.096Z,19.20
2018-07-21T02:01:28.810Z,19.10
2018-07-21T02:03:57.432Z,19.10
2018-07-21T02:06:25.924Z,19.10
2018-07-21T02:08:54.395Z,19.00
2018-07-21T02:11:23.040Z,19.00
2018-07-21T02:16:20.024Z,18.90
2018-07-21T02:18:48.563Z,18.90
2018-07-21T02:21:17.303Z,18.80
2018-07-21T02:23:46.062Z,18.80
2018-07-21T02:26:14.474Z,18.70
2018-07-21T02:31:11.455Z,18.60
2018-07-21T02:33:40.134Z,18.60
2018-07-21T02:36:08.771Z,18.50
2018-07-21T02:38:37.515Z,18.50
2018-07-21T02:41:06.370Z,18.40
2018-07-21T02:43:34.809Z,18.40
2018-07-21T02:46:03.257Z,18.40
2018-07-21T02:48:32.018Z,18.30
2018-07-21T03:06:29.214Z,18.10
2018-07-21T03:08:58.074Z,18.10
2018-07-21T03:11:26.496Z,18.10
2018-07-21T03:13:55.040Z,18.00
2018-07-21T03:16:23.419Z,18.00
2018-07-21T03:18:52.350Z,17.90
2018-07-21T03:21:20.820Z,17.90
2018-07-21T03:26:17.760Z,17.80
2018-07-21T03:28:46.360Z,17.80
2018-07-21T03:31:14.895Z,17.80
2018-07-21T03:33:43.820Z,17.80
2018-07-21T03:36:12.300Z,17.80
2018-07-21T03:38:40.755Z,17.80
2018-07-21T03:43:37.299Z,17.70
2018-07-21T03:46:06.652Z,17.70
2018-07-21T03:48:35.016Z,17.70
2018-07-21T03:51:03.838Z,17.70
2018-07-21T03:53:32.468Z,17.60
2018-07-21T03:56:01.209Z,17.70
2018-07-21T03:58:29.763Z,17.60
2018-07-21T04:00:58.243Z,17.60
2018-07-21T04:03:26.762Z,17.60
2018-07-21T04:05:55.296Z,17.60
2018-07-21T04:08:23.745Z,17.60
2018-07-21T04:10:52.329Z,17.50
2018-07-21T04:13:20.878Z,17.50
2018-07-21T04:15:49.360Z,17.50
2018-07-21T04:18:17.859Z,17.50
2018-07-21T04:20:46.483Z,17.60
2018-07-21T04:23:15.288Z,17.60
2018-07-21T04:25:43.806Z,17.60
2018-07-21T04:28:12.244Z,17.60
2018-07-21T04:30:40.935Z,17.60
2018-07-21T04:33:09.436Z,17.60
2018-07-21T04:35:37.859Z,17.60
2018-07-21T04:40:34.895Z,17.60
2018-07-21T04:43:03.478Z,17.70
2018-07-21T04:45:31.928Z,17.70
2018-07-21T04:48:00.601Z,17.80
2018-07-21T04:50:29.312Z,17.80
2018-07-21T04:52:57.915Z,17.80
2018-07-21T04:55:26.442Z,17.80
2018-07-21T04:57:54.962Z,17.80
2018-07-21T05:00:23.459Z,17.90
2018-07-21T05:02:51.961Z,17.90
2018-07-21T05:05:20.358Z,18.00
2018-07-21T05:07:49.265Z,18.10
2018-07-21T05:10:18.162Z,18.20
2018-07-21T05:12:46.612Z,18.20
2018-07-21T05:15:15.241Z,18.30
2018-07-21T05:20:12.340Z,18.50
2018-07-21T05:22:40.782Z,18.60
2018-07-21T05:25:09.373Z,18.60
2018-07-21T05:30:06.609Z,18.70
2018-07-21T05:32:35.444Z,18.80
2018-07-21T05:35:03.952Z,18.90
2018-07-21T05:37:32.476Z,19.00
2018-07-21T05:40:01.109Z,19.10
2018-07-21T05:42:30.077Z,19.10
2018-07-21T05:45:07.021Z,19.20
2018-07-21T05:47:35.572Z,19.30
2018-07-21T05:50:04.874Z,19.40
2018-07-21T05:52:33.346Z,19.60
2018-07-21T05:55:01.946Z,19.60
2018-07-21T05:57:30.833Z,19.80
2018-07-21T06:00:00.617Z,19.80
2018-07-21T06:02:30.117Z,19.90
2018-07-21T06:04:59.099Z,20.00
2018-07-21T06:07:27.829Z,20.10
2018-07-21T06:12:26.353Z,20.20
2018-07-21T06:14:55.176Z,20.30
2018-07-21T06:17:23.831Z,20.30
2018-07-21T06:19:52.714Z,20.40
2018-07-21T06:22:21.710Z,20.60
2018-07-21T06:24:51.120Z,20.60
2018-07-21T06:27:19.928Z,20.90
2018-07-21T06:29:48.745Z,21.10
2018-07-21T06:32:18.564Z,21.20
2018-07-21T06:34:47.290Z,21.50
2018-07-21T06:37:15.945Z,21.40
2018-07-21T06:39:44.756Z,22.10
2018-07-21T06:42:13.742Z,24.70
2018-07-21T06:44:42.501Z,26.50
2018-07-21T06:47:11.541Z,27.50
2018-07-21T06:49:40.660Z,27.60
2018-07-21T06:52:09.231Z,28.70
2018-07-21T06:54:37.953Z,29.90
2018-07-21T06:57:06.647Z,31.30
2018-07-21T06:59:35.712Z,30.80
2018-07-21T07:02:04.754Z,29.20
2018-07-21T07:04:33.346Z,30.20
2018-07-21T07:07:02.483Z,30.40
2018-07-21T07:09:31.249Z,30.20
2018-07-21T07:12:00.046Z,31.20
2018-07-21T07:14:28.777Z,30.70
2018-07-21T07:16:57.593Z,30.10
2018-07-21T07:19:26.309Z,30.70
2018-07-21T07:21:55.178Z,30.90
2018-07-21T07:24:23.805Z,31.10
2018-07-21T07:26:52.765Z,30.80
2018-07-21T07:29:21.449Z,32.60
2018-07-21T07:31:50.090Z,32.00
2018-07-21T07:34:19.400Z,30.50
2018-07-21T07:36:48.125Z,31.60
2018-07-21T07:39:17.121Z,33.00
2018-07-21T07:41:45.869Z,32.00
2018-07-21T07:44:14.891Z,32.00
2018-07-21T07:46:43.795Z,30.60
2018-07-21T07:49:13.001Z,30.30
2018-07-21T07:51:41.838Z,29.60
2018-07-21T07:54:10.654Z,29.80
2018-07-21T07:56:39.309Z,31.50
2018-07-21T07:59:09.071Z,31.90
2018-07-21T08:01:37.934Z,31.20
2018-07-21T08:04:06.629Z,28.90
2018-07-21T08:06:35.670Z,27.30
2018-07-21T08:11:36.048Z,26.20
2018-07-21T08:14:05.582Z,25.70
2018-07-21T08:16:34.392Z,25.70
2018-07-21T08:19:03.189Z,26.40
2018-07-21T08:21:31.955Z,27.40
2018-07-21T08:26:29.581Z,25.70
2018-07-21T08:28:58.478Z,25.80
2018-07-21T08:31:27.235Z,25.60
2018-07-21T08:33:56.220Z,25.80
2018-07-21T08:36:25.464Z,25.30
2018-07-21T08:38:54.495Z,25.30
2018-07-21T08:41:23.547Z,25.10
2018-07-21T08:43:52.951Z,25.50
2018-07-21T08:48:51.772Z,25.40
2018-07-21T08:51:20.535Z,26.00
2018-07-21T08:53:49.092Z,26.10
2018-07-21T08:56:18.434Z,26.00
2018-07-21T08:58:47.247Z,26.20
2018-07-21T09:01:15.893Z,26.90
2018-07-21T09:03:44.677Z,26.70
2018-07-21T09:06:13.287Z,26.90
2018-07-21T09:11:25.840Z,26.60
2018-07-21T09:13:55.556Z,27.00
2018-07-21T09:18:54.100Z,26.60
2018-07-21T09:21:23.448Z,27.00
2018-07-21T09:23:52.290Z,26.60
2018-07-21T09:26:22.252Z,26.90
2018-07-21T09:28:51.284Z,26.40
2018-07-21T09:33:49.506Z,26.30
2018-07-21T09:36:18.970Z,26.50
2018-07-21T09:38:48.420Z,26.50
2018-07-21T09:41:18.935Z,26.30
2018-07-21T09:43:47.920Z,26.90
2018-07-21T09:46:17.013Z,26.80
2018-07-21T09:48:46.169Z,26.80
2018-07-21T09:53:45.392Z,26.90
2018-07-21T09:56:15.413Z,27.20
2018-07-21T09:58:44.968Z,27.60
2018-07-21T10:01:15.120Z,27.40
2018-07-21T10:03:43.873Z,27.30
2018-07-21T10:06:13.128Z,27.10
2018-07-21T10:08:41.723Z,26.20
2018-07-21T10:11:11.471Z,27.20
2018-07-21T10:13:40.424Z,27.50
2018-07-21T10:16:09.618Z,27.60
2018-07-21T10:21:07.447Z,27.30
2018-07-21T10:23:36.481Z,27.80
2018-07-21T10:26:10.403Z,27.30
2018-07-21T10:28:44.541Z,27.40
2018-07-21T10:31:13.731Z,28.00
2018-07-21T10:36:11.824Z,28.50
2018-07-21T10:38:40.459Z,28.30
2018-07-21T10:41:09.170Z,28.40
2018-07-21T10:43:38.156Z,28.20
2018-07-21T10:46:07.853Z,28.30
2018-07-21T10:48:38.810Z,27.70
2018-07-21T10:51:07.621Z,27.60
2018-07-21T10:53:36.727Z,27.60
2018-07-21T10:56:05.405Z,27.80
2018-07-21T10:58:34.695Z,28.00
2018-07-21T11:01:04.272Z,28.30
2018-07-21T11:03:33.045Z,27.60
2018-07-21T11:06:02.079Z,27.50
2018-07-21T11:08:31.147Z,26.90
2018-07-21T11:11:00.242Z,26.80
2018-07-21T11:13:29.250Z,27.00
2018-07-21T11:15:58.151Z,27.10
2018-07-21T11:18:27.066Z,27.60
2018-07-21T11:20:55.987Z,27.30
2018-07-21T11:23:25.268Z,27.60
2018-07-21T11:25:54.208Z,27.70
2018-07-21T11:28:23.186Z,28.00
2018-07-21T11:30:52.034Z,27.90
2018-07-21T11:35:50.437Z,28.30
2018-07-21T11:38:19.746Z,27.90
2018-07-21T11:40:50.098Z,28.10
2018-07-21T11:43:18.926Z,28.10
2018-07-21T11:45:47.708Z,28.40
2018-07-21T11:48:16.820Z,28.40
2018-07-21T11:50:46.372Z,28.30
2018-07-21T11:53:16.975Z,28.40
2018-07-21T11:55:46.457Z,28.30
2018-07-21T11:58:15.487Z,28.20
2018-07-21T12:05:56.395Z,27.90
2018-07-21T12:10:53.494Z,28.10
2018-07-21T12:13:23.383Z,28.20
2018-07-21T12:15:52.001Z,28.20
2018-07-21T12:20:48.991Z,28.10
2018-07-21T12:23:17.561Z,27.70
2018-07-21T12:25:46.558Z,28.00
2018-07-21T12:28:16.347Z,27.90
2018-07-21T12:30:46.256Z,28.40
2018-07-21T12:33:15.496Z,29.00
2018-07-21T12:35:44.804Z,28.80
2018-07-21T12:38:13.234Z,29.10
2018-07-21T12:40:42.200Z,28.50
2018-07-21T12:43:11.854Z,28.70
2018-07-21T12:45:40.965Z,28.80
2018-07-21T12:48:09.610Z,28.10
2018-07-21T12:50:38.776Z,28.10
2018-07-21T12:53:07.628Z,28.40
2018-07-21T12:55:36.588Z,28.40
2018-07-21T12:58:05.803Z,28.40
2018-07-21T13:00:34.513Z,28.40
2018-07-21T13:03:03.134Z,28.50
2018-07-21T13:05:31.647Z,29.00
2018-07-21T13:10:29.235Z,29.00
2018-07-21T13:12:58.017Z,29.30
2018-07-21T13:17:54.464Z,28.30
2018-07-21T13:20:23.037Z,28.50
2018-07-21T13:22:51.642Z,28.20
2018-07-21T13:25:20.628Z,28.30
2018-07-21T13:27:49.165Z,28.40
2018-07-21T13:30:18.161Z,28.80
2018-07-21T13:32:47.494Z,27.80
2018-07-21T13:35:16.609Z,28.00
2018-07-21T13:37:46.313Z,28.20
2018-07-21T13:40:15.943Z,28.00
2018-07-21T13:42:45.172Z,27.80
2018-07-21T13:45:15.160Z,27.50
2018-07-21T13:47:44.043Z,27.50
2018-07-21T13:50:12.660Z,28.20
2018-07-21T13:52:41.673Z,28.60
2018-07-21T13:55:10.457Z,28.80
2018-07-21T13:57:39.024Z,27.90
2018-07-21T14:00:08.335Z,28.40
2018-07-21T14:02:37.549Z,28.40
2018-07-21T14:07:34.466Z,27.90
2018-07-21T14:10:03.773Z,27.60
2018-07-21T14:12:33.257Z,27.50
2018-07-21T14:15:04.769Z,27.50
2018-07-21T14:17:33.755Z,27.40
2018-07-21T14:20:03.254Z,27.30
2018-07-21T14:22:33.190Z,27.00
2018-07-21T14:25:02.382Z,27.30
2018-07-21T14:27:31.154Z,27.50
2018-07-21T14:29:59.796Z,27.60
2018-07-21T14:32:28.165Z,27.40
2018-07-21T14:34:57.644Z,27.50
2018-07-21T14:37:26.275Z,27.40
2018-07-21T14:39:55.693Z,27.00
2018-07-21T14:42:25.070Z,27.50
2018-07-21T14:44:54.314Z,27.50
2018-07-21T14:47:23.563Z,27.80
2018-07-21T14:49:52.202Z,27.70
2018-07-21T14:52:21.011Z,27.40
2018-07-21T14:54:50.467Z,27.50
2018-07-21T14:57:19.434Z,27.10
2018-07-21T14:59:49.897Z,27.90
2018-07-21T15:02:19.205Z,27.20
2018-07-21T15:04:48.170Z,27.00
2018-07-21T15:07:17.096Z,26.90
2018-07-21T15:09:46.523Z,26.80
2018-07-21T15:12:15.794Z,26.80
2018-07-21T15:14:45.096Z,27.20
2018-07-21T15:17:13.945Z,27.30
2018-07-21T15:19:42.725Z,27.40
2018-07-21T15:22:11.341Z,26.40
2018-07-21T15:24:40.057Z,26.60
2018-07-21T15:27:10.848Z,26.90
2018-07-21T15:29:39.652Z,26.80
2018-07-21T15:32:08.881Z,26.60
2018-07-21T15:34:37.835Z,26.20
2018-07-21T15:37:08.837Z,26.30
2018-07-21T15:39:37.706Z,26.50
2018-07-21T15:42:06.745Z,26.60
2018-07-21T15:44:35.632Z,26.50
2018-07-21T15:47:04.478Z,26.50
2018-07-21T15:49:33.387Z,26.40
2018-07-21T15:52:02.624Z,26.00
2018-07-21T15:54:31.694Z,25.80
2018-07-21T15:57:00.999Z,25.90
2018-07-21T15:59:29.987Z,26.00
2018-07-21T16:01:58.830Z,25.60
2018-07-21T16:04:27.456Z,25.60
2018-07-21T16:06:56.346Z,25.40
2018-07-21T16:09:25.442Z,25.70
2018-07-21T16:11:54.126Z,25.70
2018-07-21T16:14:22.702Z,25.50
2018-07-21T16:16:51.693Z,25.20
2018-07-21T16:19:20.107Z,25.20
2018-07-21T16:21:49.049Z,24.60
2018-07-21T16:24:17.660Z,24.80
2018-07-21T16:26:46.081Z,25.00
2018-07-21T16:29:14.788Z,24.90
2018-07-21T16:31:43.447Z,25.00
2018-07-21T16:34:12.197Z,24.60
2018-07-21T16:36:40.890Z,24.70
2018-07-21T16:39:11.091Z,24.80
2018-07-21T16:41:39.826Z,24.70
2018-07-21T16:44:08.596Z,24.90
2018-07-21T16:46:37.695Z,24.80
2018-07-21T16:49:06.361Z,24.70
2018-07-21T16:54:04.150Z,24.90
2018-07-21T16:56:32.767Z,24.70
2018-07-21T16:59:01.725Z,24.70
2018-07-21T17:01:30.401Z,24.20
2018-07-21T17:03:58.772Z,24.00
2018-07-21T17:06:27.135Z,24.40
2018-07-21T17:08:55.997Z,24.30
2018-07-21T17:11:24.503Z,24.20
2018-07-21T17:13:53.071Z,23.90
2018-07-21T17:16:21.759Z,23.70
2018-07-21T17:18:50.233Z,23.60
2018-07-21T17:21:19.058Z,23.50
2018-07-21T17:23:47.872Z,23.40
2018-07-21T17:26:16.465Z,23.20
2018-07-21T17:28:45.130Z,23.20
2018-07-21T17:31:13.911Z,23.20
2018-07-21T17:33:42.405Z,23.20
2018-07-21T17:36:10.852Z,22.90
2018-07-21T17:38:39.335Z,22.80
2018-07-21T17:41:07.944Z,22.80
2018-07-21T17:43:36.391Z,22.80
2018-07-21T17:46:04.933Z,22.90
2018-07-21T17:48:33.549Z,22.80
2018-07-21T17:51:02.520Z,22.80
2018-07-21T17:53:31.622Z,22.70
2018-07-21T17:56:00.724Z,22.70
2018-07-21T17:58:29.539Z,22.50
2018-07-21T18:00:58.326Z,22.40
2018-07-21T18:03:26.717Z,22.40
2018-07-21T18:05:55.326Z,22.40
2018-07-21T18:08:24.280Z,22.40
2018-07-21T18:10:52.756Z,22.30
2018-07-21T18:13:21.387Z,22.20
2018-07-21T18:18:18.347Z,22.10
2018-07-21T18:20:46.837Z,22.20
2018-07-21T18:23:15.496Z,22.00
2018-07-21T18:25:44.271Z,22.00
2018-07-21T18:28:12.696Z,21.90
2018-07-21T18:30:41.158Z,21.90
2018-07-21T18:33:09.806Z,21.70
2018-07-21T18:35:38.276Z,21.80
2018-07-21T18:38:06.970Z,21.80
2018-07-21T18:40:35.450Z,21.60
2018-07-21T18:43:03.867Z,21.50
2018-07-21T18:45:32.575Z,21.40
2018-07-21T18:48:01.411Z,21.40
2018-07-21T18:50:30.040Z,21.40
2018-07-21T18:52:58.615Z,21.30
2018-07-21T18:55:27.163Z,21.30
2018-07-21T18:57:55.909Z,21.30
2018-07-21T19:02:52.773Z,20.90
2018-07-21T19:05:22.352Z,20.80
2018-07-21T19:07:51.168Z,20.90
2018-07-21T19:10:19.866Z,20.70
2018-07-21T19:12:49.656Z,20.70
2018-07-21T19:17:24.937Z,20.60
2018-07-21T19:19:59.073Z,20.50
2018-07-21T19:22:27.745Z,20.50
2018-07-21T19:24:56.415Z,20.50
2018-07-21T19:27:31.079Z,20.60
2018-07-21T19:29:59.881Z,20.50
2018-07-21T19:32:34.372Z,20.40
2018-07-21T19:35:04.232Z,20.40
2018-07-21T19:37:38.371Z,20.40
2018-07-21T19:40:07.062Z,20.30
2018-07-21T19:42:35.559Z,20.30
2018-07-21T19:45:04.321Z,20.30
2018-07-21T19:47:32.916Z,20.30
2018-07-21T19:50:01.698Z,20.20
2018-07-21T19:52:30.089Z,20.20
2018-07-21T19:54:58.527Z,20.20
2018-07-21T19:57:27.532Z,20.10
2018-07-21T19:59:55.976Z,20.00
2018-07-21T20:02:24.471Z,20.00
2018-07-21T20:04:53.041Z,20.00
2018-07-21T20:07:21.542Z,20.00
2018-07-21T20:09:50.261Z,19.90
2018-07-21T20:12:19.084Z,19.90
2018-07-21T20:14:47.725Z,19.80
2018-07-21T20:17:16.278Z,19.80
2018-07-21T20:19:44.935Z,19.80
2018-07-21T20:22:13.611Z,19.70
2018-07-21T20:24:42.372Z,19.80
2018-07-21T20:27:10.934Z,19.70
2018-07-21T20:29:39.886Z,19.60
2018-07-21T20:32:08.961Z,19.60
2018-07-21T20:34:38.519Z,19.60
2018-07-21T20:37:07.328Z,19.60
2018-07-21T20:39:37.817Z,19.60
2018-07-21T20:42:06.464Z,19.60
2018-07-21T20:44:34.820Z,19.50
2018-07-21T20:47:03.681Z,19.40
2018-07-21T20:49:32.322Z,19.50
2018-07-21T20:52:01.144Z,19.40
2018-07-21T20:54:30.021Z,19.40
2018-07-21T20:56:58.996Z,19.30
2018-07-21T20:59:27.666Z,19.30
2018-07-21T21:01:56.505Z,19.30
2018-07-21T21:04:25.573Z,19.30
2018-07-21T21:06:54.262Z,19.20
2018-07-21T21:09:24.218Z,19.20
2018-07-21T21:11:52.731Z,19.10
2018-07-21T21:14:21.323Z,19.10
2018-07-21T21:16:50.004Z,19.10
2018-07-21T21:19:18.460Z,19.10
2018-07-21T21:21:46.972Z,19.10
2018-07-21T21:24:15.499Z,19.00
2018-07-21T21:26:44.062Z,19.00
2018-07-21T21:29:13.951Z,19.00
2018-07-21T21:31:42.449Z,18.90
2018-07-21T21:34:10.974Z,18.90
2018-07-21T21:36:39.655Z,18.80
2018-07-21T21:39:10.073Z,18.80
2018-07-21T21:41:38.708Z,18.70
2018-07-21T21:44:07.368Z,18.70
2018-07-21T21:46:35.773Z,18.70
2018-07-21T21:49:04.539Z,18.70
2018-07-21T21:51:33.106Z,18.70
2018-07-21T21:54:01.673Z,18.60
2018-07-21T21:56:30.690Z,18.60
2018-07-21T21:58:59.286Z,18.50
2018-07-21T22:01:33.151Z,18.50
2018-07-21T22:04:02.110Z,18.50
2018-07-21T22:06:31.089Z,18.50
2018-07-21T22:08:59.682Z,18.40
2018-07-21T22:11:28.282Z,18.40
2018-07-21T22:13:56.827Z,18.50
2018-07-21T22:16:25.404Z,18.30
2018-07-21T22:18:54.353Z,18.20
2018-07-21T22:23:50.974Z,18.10
2018-07-21T22:26:19.385Z,18.10
2018-07-21T22:28:47.924Z,18.10
2018-07-21T22:31:16.384Z,18.00
2018-07-21T22:33:44.898Z,18.00
2018-07-21T22:38:41.631Z,17.90
2018-07-21T22:41:10.149Z,17.80
2018-07-21T22:43:38.618Z,17.90
2018-07-21T22:46:07.268Z,17.90
2018-07-21T22:48:35.800Z,17.80
2018-07-21T22:51:04.427Z,17.80
2018-07-21T22:53:32.948Z,17.90
2018-07-21T22:56:01.590Z,17.80
2018-07-21T22:58:30.446Z,17.80
2018-07-21T23:00:58.941Z,17.80
2018-07-21T23:03:27.648Z,17.80
2018-07-21T23:05:56.445Z,17.70
2018-07-21T23:08:25.096Z,17.70
2018-07-21T23:10:53.676Z,17.70
2018-07-21T23:13:22.386Z,17.60
2018-07-21T23:15:51.019Z,17.60
2018-07-21T23:18:19.505Z,17.60
2018-07-21T23:20:48.231Z,17.60
2018-07-21T23:23:16.833Z,17.60
2018-07-21T23:25:45.297Z,17.50
2018-07-21T23:28:13.961Z,17.60
2018-07-21T23:30:42.552Z,17.60
2018-07-21T23:35:40.379Z,17.60
2018-07-21T23:38:08.786Z,17.60
2018-07-21T23:40:37.560Z,17.50
2018-07-21T23:43:06.667Z,17.60
2018-07-21T23:45:35.149Z,17.60
2018-07-21T23:48:03.726Z,17.60
2018-07-21T23:50:32.519Z,17.60
2018-07-21T23:53:01.625Z,17.60
2018-07-21T23:55:30.402Z,17.50
2018-07-21T23:58:03.344Z,17.50
